createdAt,value
2022-09-15T00:01:10.490Z,17.22
2022-09-15T00:03:38.761Z,17.22
2022-09-15T00:06:07.311Z,17.20
2022-09-15T00:08:35.231Z,17.16
2022-09-15T00:11:07.647Z,17.19
2022-09-15T00:13:36.195Z,17.19
2022-09-15T00:16:05.857Z,17.18
2022-09-15T00:18:34.114Z,17.19
2022-09-15T00:21:05.326Z,17.17
2022-09-15T00:23:32.998Z,17.16
2022-09-15T00:26:00.613Z,17.16
2022-09-15T00:28:28.268Z,17.15
2022-09-15T00:30:56.476Z,17.14
2022-09-15T00:33:25.755Z,17.14
2022-09-15T00:35:54.528Z,17.12
2022-09-15T00:38:22.232Z,17.12
2022-09-15T00:40:52.790Z,17.09
2022-09-15T00:43:45.745Z,17.11
2022-09-15T00:46:14.201Z,17.09
2022-09-15T00:48:46.635Z,17.10
2022-09-15T00:51:17.757Z,17.09
2022-09-15T00:53:47.471Z,17.07
2022-09-15T00:56:17.159Z,17.08
2022-09-15T00:58:49.833Z,17.08
2022-09-15T01:01:17.747Z,17.05
2022-09-15T01:03:46.814Z,17.08
2022-09-15T01:06:19.259Z,17.07
2022-09-15T01:08:53.106Z,17.08
2022-09-15T01:11:20.826Z,17.09
2022-09-15T01:13:48.478Z,17.07
2022-09-15T01:16:22.144Z,17.07
2022-09-15T01:19:02.883Z,17.06
2022-09-15T01:21:38.161Z,17.06
2022-09-15T01:24:42.366Z,17.05
2022-09-15T01:27:41.208Z,17.05
2022-09-15T01:30:13.378Z,17.03
2022-09-15T01:33:09.614Z,17.02
2022-09-15T01:35:47.422Z,17.03
2022-09-15T01:38:22.992Z,17.03
2022-09-15T01:40:56.714Z,17.02
2022-09-15T01:43:27.418Z,17.01
2022-09-15T01:45:57.936Z,17.01
2022-09-15T01:48:28.377Z,17.01
2022-09-15T01:50:58.748Z,17.00
2022-09-15T01:53:28.019Z,17.00
2022-09-15T01:56:01.003Z,16.98
2022-09-15T01:58:28.830Z,16.98
2022-09-15T02:01:01.789Z,16.98
2022-09-15T02:03:35.137Z,16.96
2022-09-15T02:06:07.716Z,16.95
2022-09-15T02:08:42.778Z,16.96
2022-09-15T02:11:16.573Z,16.96
2022-09-15T02:13:51.920Z,16.95
2022-09-15T02:16:24.327Z,16.94
2022-09-15T02:19:03.923Z,16.91
2022-09-15T02:21:37.306Z,16.91
2022-09-15T02:24:10.983Z,16.91
2022-09-15T02:26:41.456Z,16.91
2022-09-15T02:29:13.256Z,16.90
2022-09-15T02:31:44.221Z,16.90
2022-09-15T02:34:16.872Z,16.90
2022-09-15T02:36:45.915Z,16.88
2022-09-15T02:39:19.399Z,16.86
2022-09-15T02:41:47.144Z,16.88
2022-09-15T02:44:15.064Z,16.88
2022-09-15T02:46:44.585Z,16.87
2022-09-15T02:49:13.135Z,16.87
2022-09-15T02:51:40.786Z,16.88
2022-09-15T02:54:09.122Z,16.89
2022-09-15T02:56:37.185Z,16.89
2022-09-15T02:59:04.875Z,16.89
2022-09-15T03:01:34.481Z,16.89
2022-09-15T03:04:04.802Z,16.88
2022-09-15T03:06:36.079Z,16.89
2022-09-15T03:09:06.968Z,16.89
2022-09-15T03:11:35.836Z,16.87
2022-09-15T03:14:06.760Z,16.85
2022-09-15T03:16:36.276Z,16.87
2022-09-15T03:19:05.679Z,16.87
2022-09-15T03:21:33.423Z,16.84
2022-09-15T03:24:01.076Z,16.86
2022-09-15T03:26:28.739Z,16.84
2022-09-15T03:28:56.512Z,16.82
2022-09-15T03:31:24.223Z,16.83
2022-09-15T03:33:54.700Z,16.82
2022-09-15T03:36:23.693Z,16.81
2022-09-15T03:38:51.613Z,16.81
2022-09-15T03:41:19.898Z,16.81
2022-09-15T03:43:47.561Z,16.80
2022-09-15T03:46:15.584Z,16.79
2022-09-15T03:48:43.260Z,16.79
2022-09-15T03:51:11.908Z,16.78
2022-09-15T03:53:42.595Z,16.77
2022-09-15T03:56:12.662Z,16.75
2022-09-15T03:58:40.642Z,16.74
2022-09-15T04:01:08.696Z,16.73
2022-09-15T04:03:43.233Z,16.73
2022-09-15T04:06:13.050Z,16.73
2022-09-15T04:08:42.315Z,16.72
2022-09-15T04:11:11.728Z,16.72
2022-09-15T04:13:41.826Z,16.70
2022-09-15T04:16:13.527Z,16.70
2022-09-15T04:18:41.706Z,16.67
2022-09-15T04:21:13.087Z,16.65
2022-09-15T04:23:42.736Z,16.64
2022-09-15T04:26:15.231Z,16.65
2022-09-15T04:28:42.887Z,16.65
2022-09-15T04:31:12.854Z,16.66
2022-09-15T04:33:42.551Z,16.67
2022-09-15T04:36:12.829Z,16.66
2022-09-15T04:38:42.114Z,16.65
2022-09-15T04:41:09.936Z,16.66
2022-09-15T04:43:37.934Z,16.64
2022-09-15T04:46:06.071Z,16.65
2022-09-15T04:48:33.761Z,16.65
2022-09-15T04:51:03.068Z,16.64
2022-09-15T04:53:31.606Z,16.61
2022-09-15T04:56:08.897Z,16.62
2022-09-15T04:58:38.742Z,16.62
2022-09-15T05:01:11.353Z,16.62
2022-09-15T05:03:39.388Z,16.58
2022-09-15T05:06:10.157Z,16.60
2022-09-15T05:08:38.182Z,16.53
2022-09-15T05:11:10.445Z,16.59
2022-09-15T05:13:38.866Z,16.60
2022-09-15T05:16:08.247Z,16.60
2022-09-15T05:18:36.151Z,16.59
2022-09-15T05:21:05.226Z,16.62
2022-09-15T05:23:34.704Z,16.61
2022-09-15T05:26:03.887Z,16.59
2022-09-15T05:28:33.763Z,16.58
2022-09-15T05:31:01.536Z,16.59
2022-09-15T05:33:29.241Z,16.59
2022-09-15T05:35:58.666Z,16.59
2022-09-15T05:38:27.491Z,16.59
2022-09-15T05:40:55.881Z,16.58
2022-09-15T05:43:23.499Z,16.60
2022-09-15T05:45:56.401Z,16.58
2022-09-15T05:48:24.559Z,16.57
2022-09-15T05:50:53.947Z,16.58
2022-09-15T05:53:22.413Z,16.55
2022-09-15T05:55:50.192Z,16.54
2022-09-15T05:58:17.850Z,16.53
2022-09-15T06:00:45.542Z,16.51
2022-09-15T06:03:16.505Z,16.52
2022-09-15T06:05:44.321Z,16.48
2022-09-15T06:08:12.699Z,16.52
2022-09-15T06:10:40.485Z,16.53
2022-09-15T06:13:08.143Z,16.52
2022-09-15T06:15:35.850Z,16.52
2022-09-15T06:18:03.611Z,16.53
2022-09-15T06:20:32.608Z,16.53
2022-09-15T06:23:00.260Z,16.53
2022-09-15T06:25:27.882Z,16.53
2022-09-15T06:27:55.522Z,16.53
2022-09-15T06:30:23.138Z,16.51
2022-09-15T06:32:50.786Z,16.53
2022-09-15T06:35:18.387Z,16.52
2022-09-15T06:37:47.620Z,16.53
2022-09-15T06:40:15.518Z,16.53
2022-09-15T06:42:43.143Z,16.54
2022-09-15T06:45:11.550Z,16.55
2022-09-15T06:47:39.206Z,16.55
2022-09-15T06:50:07.393Z,16.55
2022-09-15T06:52:36.354Z,16.55
2022-09-15T06:55:06.353Z,16.56
2022-09-15T06:57:34.213Z,16.55
2022-09-15T07:00:02.164Z,16.54
2022-09-15T07:02:29.965Z,16.54
2022-09-15T07:04:57.806Z,16.53
2022-09-15T07:07:25.842Z,16.54
2022-09-15T07:09:53.526Z,16.53
2022-09-15T07:12:22.608Z,16.54
2022-09-15T07:14:50.262Z,16.55
2022-09-15T07:17:17.895Z,16.55
2022-09-15T07:19:45.905Z,16.54
2022-09-15T07:22:13.593Z,16.54
2022-09-15T07:24:41.262Z,16.54
2022-09-15T07:27:09.623Z,16.55
2022-09-15T07:29:39.245Z,16.55
2022-09-15T07:32:07.001Z,16.55
2022-09-15T07:34:34.722Z,16.56
2022-09-15T07:37:02.623Z,16.58
2022-09-15T07:39:30.921Z,16.58
2022-09-15T07:41:58.544Z,16.58
2022-09-15T07:44:26.525Z,16.59
2022-09-15T07:46:55.529Z,16.59
2022-09-15T07:49:23.151Z,16.59
2022-09-15T07:51:50.782Z,16.59
2022-09-15T07:54:22.602Z,16.60
2022-09-15T07:56:50.694Z,16.60
2022-09-15T07:59:18.291Z,16.60
2022-09-15T08:01:46.467Z,16.60
2022-09-15T08:04:15.518Z,16.62
2022-09-15T08:06:43.202Z,16.56
2022-09-15T08:09:14.672Z,16.62
2022-09-15T08:11:42.859Z,16.63
2022-09-15T08:14:10.998Z,16.61
2022-09-15T08:16:39.581Z,16.65
2022-09-15T08:19:07.734Z,16.66
2022-09-15T08:21:36.751Z,16.64
2022-09-15T08:24:04.489Z,16.67
2022-09-15T08:26:32.272Z,16.65
2022-09-15T08:29:00.658Z,16.68
2022-09-15T08:31:28.393Z,16.69
2022-09-15T08:33:56.883Z,16.69
2022-09-15T08:36:27.532Z,16.70
2022-09-15T08:38:56.734Z,16.70
2022-09-15T08:41:26.844Z,16.71
2022-09-15T08:44:00.174Z,16.72
2022-09-15T08:46:33.821Z,16.72
2022-09-15T08:49:09.438Z,16.73
2022-09-15T08:51:43.302Z,16.70
2022-09-15T08:54:19.714Z,16.74
2022-09-15T08:56:48.855Z,16.74
2022-09-15T08:59:18.788Z,16.75
2022-09-15T09:02:01.680Z,16.78
2022-09-15T09:04:55.025Z,16.79
2022-09-15T09:07:37.153Z,16.79
2022-09-15T09:10:15.150Z,16.81
2022-09-15T09:12:58.120Z,16.80
2022-09-15T09:15:40.903Z,16.81
2022-09-15T09:18:29.866Z,16.82
2022-09-15T09:21:06.287Z,16.82
2022-09-15T09:23:37.798Z,16.82
2022-09-15T09:26:10.456Z,16.83
2022-09-15T09:28:43.302Z,16.82
2022-09-15T09:31:18.638Z,16.84
2022-09-15T09:33:53.045Z,16.84
2022-09-15T09:36:20.945Z,16.85
2022-09-15T09:38:49.761Z,16.86
2022-09-15T09:41:22.214Z,16.88
2022-09-15T09:43:50.541Z,16.88
2022-09-15T09:46:21.048Z,16.91
2022-09-15T09:48:53.525Z,16.92
2022-09-15T09:51:35.622Z,16.95
2022-09-15T09:54:11.135Z,16.95
2022-09-15T09:56:41.032Z,16.96
2022-09-15T09:59:35.557Z,16.96
2022-09-15T10:02:18.863Z,16.98
2022-09-15T10:04:47.906Z,16.98
2022-09-15T10:07:17.910Z,16.99
2022-09-15T10:09:52.524Z,17.00
2022-09-15T10:12:24.010Z,16.99
2022-09-15T10:14:56.314Z,17.00
2022-09-15T10:17:25.578Z,16.99
2022-09-15T10:19:55.100Z,17.01
2022-09-15T10:22:27.030Z,17.00
2022-09-15T10:24:54.970Z,17.00
2022-09-15T10:27:28.940Z,17.02
2022-09-15T10:30:00.750Z,17.01
2022-09-15T10:32:30.982Z,16.97
2022-09-15T10:35:07.543Z,17.00
2022-09-15T10:37:37.458Z,16.99
2022-09-15T10:40:20.875Z,16.98
2022-09-15T10:42:52.833Z,16.98
2022-09-15T10:45:33.731Z,16.96
2022-09-15T10:48:20.975Z,16.96
2022-09-15T10:50:57.009Z,16.95
2022-09-15T10:53:38.364Z,16.95
2022-09-15T10:56:20.128Z,16.95
2022-09-15T10:59:18.670Z,16.94
2022-09-15T11:02:07.257Z,16.95
2022-09-15T11:04:50.742Z,16.94
2022-09-15T11:07:30.281Z,16.95
2022-09-15T11:10:07.831Z,16.96
2022-09-15T11:12:53.086Z,16.97
2022-09-15T11:15:30.609Z,16.96
2022-09-15T11:18:32.015Z,16.88
2022-09-15T11:21:23.870Z,16.96
2022-09-15T11:24:11.401Z,16.96
2022-09-15T11:26:43.460Z,16.95
2022-09-15T11:29:16.874Z,16.95
2022-09-15T11:31:49.100Z,16.94
2022-09-15T11:34:24.531Z,16.96
2022-09-15T11:36:57.978Z,16.96
2022-09-15T11:39:31.005Z,16.97
2022-09-15T11:42:05.406Z,16.97
2022-09-15T11:44:35.674Z,16.97
2022-09-15T11:47:20.775Z,16.97
2022-09-15T11:49:56.966Z,16.98
2022-09-15T11:52:45.650Z,16.98
2022-09-15T11:55:25.331Z,16.99
2022-09-15T11:58:02.795Z,17.00
2022-09-15T12:00:31.639Z,17.01
2022-09-15T12:03:14.813Z,17.01
2022-09-15T12:05:49.498Z,17.00
2022-09-15T12:08:22.302Z,17.04
2022-09-15T12:10:53.282Z,17.04
2022-09-15T12:13:24.014Z,17.06
2022-09-15T12:15:52.582Z,17.07
2022-09-15T12:18:38.462Z,17.06
2022-09-15T12:21:16.567Z,17.08
2022-09-15T12:23:52.396Z,17.09
2022-09-15T12:26:21.911Z,17.09
2022-09-15T12:28:55.311Z,17.10
2022-09-15T12:31:46.974Z,17.11
2022-09-15T12:34:34.156Z,17.12
2022-09-15T12:37:09.990Z,17.11
2022-09-15T12:39:42.978Z,17.13
2022-09-15T12:42:21.524Z,17.14
2022-09-15T12:44:53.691Z,17.15
2022-09-15T12:47:38.118Z,17.15
2022-09-15T12:50:24.170Z,17.16
2022-09-15T12:52:55.620Z,17.17
2022-09-15T12:55:26.841Z,17.19
2022-09-15T12:57:57.162Z,17.19
2022-09-15T13:00:31.073Z,17.21
2022-09-15T13:02:58.961Z,17.21
2022-09-15T13:05:52.980Z,17.23
2022-09-15T13:08:47.938Z,17.25
2022-09-15T13:11:19.091Z,17.25
2022-09-15T13:13:51.483Z,17.24
2022-09-15T13:16:27.487Z,17.27
2022-09-15T13:19:06.062Z,17.28
2022-09-15T13:21:36.638Z,17.31
2022-09-15T13:24:12.671Z,17.32
2022-09-15T13:26:44.675Z,17.34
2022-09-15T13:29:15.370Z,17.33
2022-09-15T13:31:53.365Z,17.34
2022-09-15T13:35:05.044Z,17.38
2022-09-15T13:38:15.118Z,17.35
2022-09-15T13:41:03.898Z,17.42
2022-09-15T13:43:51.462Z,17.36
2022-09-15T13:46:34.290Z,17.45
2022-09-15T13:49:37.958Z,17.46
2022-09-15T13:52:13.622Z,17.46
2022-09-15T13:55:17.175Z,17.48
2022-09-15T14:00:48.550Z,17.45
2022-09-15T14:03:20.412Z,17.44
2022-09-15T14:05:48.272Z,17.44
2022-09-15T14:08:21.362Z,17.43
2022-09-15T14:10:54.489Z,17.43
2022-09-15T14:13:27.112Z,17.43
2022-09-15T14:15:59.533Z,17.41
2022-09-15T14:18:27.675Z,17.42
2022-09-15T14:21:00.733Z,17.43
2022-09-15T14:23:28.620Z,17.43
2022-09-15T14:25:58.996Z,17.43
2022-09-15T14:28:32.120Z,17.44
2022-09-15T14:31:00.813Z,17.43
2022-09-15T14:33:37.940Z,17.42
2022-09-15T14:36:14.216Z,17.43
2022-09-15T14:38:41.907Z,17.41
2022-09-15T14:41:20.359Z,17.39
2022-09-15T14:43:49.378Z,17.38
2022-09-15T14:46:19.149Z,17.38
2022-09-15T14:48:47.001Z,17.37
2022-09-15T14:51:22.465Z,17.35
2022-09-15T14:53:52.734Z,17.35
2022-09-15T14:56:25.221Z,17.34
2022-09-15T14:58:56.978Z,17.32
2022-09-15T15:01:30.700Z,17.32
2022-09-15T15:04:04.119Z,17.30
2022-09-15T15:06:37.215Z,17.30
2022-09-15T15:09:10.100Z,17.30
2022-09-15T15:11:40.018Z,17.29
2022-09-15T15:14:11.394Z,17.29
2022-09-15T15:16:51.478Z,17.28
2022-09-15T15:19:32.547Z,17.27
2022-09-15T15:22:16.897Z,17.27
2022-09-15T15:24:46.809Z,17.25
2022-09-15T15:27:40.686Z,17.24
2022-09-15T15:30:46.844Z,17.22
2022-09-15T15:33:24.102Z,17.21
2022-09-15T15:36:03.074Z,17.20
2022-09-15T15:38:35.050Z,17.21
2022-09-15T15:41:05.046Z,17.19
2022-09-15T15:43:34.274Z,17.18
2022-09-15T15:46:05.754Z,17.17
2022-09-15T15:48:37.783Z,17.16
2022-09-15T15:51:07.533Z,17.15
2022-09-15T15:53:35.595Z,17.15
2022-09-15T15:56:03.672Z,17.13
2022-09-15T15:58:31.405Z,17.12
2022-09-15T16:00:59.104Z,17.09
2022-09-15T16:03:28.565Z,17.09
2022-09-15T16:05:59.903Z,17.08
2022-09-15T16:08:32.015Z,17.08
2022-09-15T16:11:01.624Z,17.07
2022-09-15T16:13:29.677Z,17.06
2022-09-15T16:15:58.893Z,17.06
2022-09-15T16:18:28.260Z,17.05
2022-09-15T16:20:55.994Z,17.04
2022-09-15T16:23:24.499Z,17.04
2022-09-15T16:25:56.410Z,17.03
2022-09-15T16:28:24.109Z,17.02
2022-09-15T16:30:52.005Z,17.02
2022-09-15T16:33:20.231Z,17.01
2022-09-15T16:35:51.484Z,17.00
2022-09-15T16:38:20.195Z,16.99
2022-09-15T16:40:48.277Z,16.99
2022-09-15T16:43:18.092Z,16.98
2022-09-15T16:45:46.493Z,16.98
2022-09-15T16:48:14.706Z,16.96
2022-09-15T16:50:56.025Z,16.95
2022-09-15T16:53:32.646Z,16.95
2022-09-15T16:56:00.476Z,16.92
2022-09-15T16:58:28.161Z,16.91
2022-09-15T17:00:55.994Z,16.90
2022-09-15T17:03:26.304Z,16.89
2022-09-15T17:05:55.593Z,16.88
2022-09-15T17:08:27.200Z,16.87
2022-09-15T17:10:57.255Z,16.88
2022-09-15T17:13:29.379Z,16.89
2022-09-15T17:15:58.853Z,16.90
2022-09-15T17:18:26.967Z,16.90
2022-09-15T17:20:54.896Z,16.89
2022-09-15T17:23:24.456Z,16.87
2022-09-15T17:25:53.313Z,16.89
2022-09-15T17:28:24.495Z,16.89
2022-09-15T17:30:53.655Z,16.87
2022-09-15T17:33:21.776Z,16.88
2022-09-15T17:35:49.955Z,16.88
2022-09-15T17:38:20.277Z,16.88
2022-09-15T17:40:48.629Z,16.88
2022-09-15T17:43:17.914Z,16.87
2022-09-15T17:45:48.188Z,16.88
2022-09-15T17:48:16.123Z,16.88
2022-09-15T17:50:45.331Z,16.87
2022-09-15T17:53:15.309Z,16.87
2022-09-15T17:55:43.401Z,16.87
2022-09-15T17:58:11.730Z,16.87
2022-09-15T18:00:42.340Z,16.87
2022-09-15T18:03:21.222Z,16.87
2022-09-15T18:05:49.410Z,16.86
2022-09-15T18:08:17.494Z,16.87
2022-09-15T18:10:45.366Z,16.86
2022-09-15T18:13:16.122Z,16.88
2022-09-15T18:15:44.206Z,16.90
2022-09-15T18:18:16.684Z,16.92
2022-09-15T18:20:45.137Z,16.96
2022-09-15T18:23:15.351Z,16.97
2022-09-15T18:25:43.716Z,16.96
2022-09-15T18:28:12.279Z,16.96
2022-09-15T18:30:42.019Z,16.96
2022-09-15T18:33:15.983Z,16.96
2022-09-15T18:35:44.559Z,16.95
2022-09-15T18:38:13.000Z,16.92
2022-09-15T18:40:45.381Z,16.92
2022-09-15T18:43:13.091Z,16.94
2022-09-15T18:45:41.391Z,16.96
2022-09-15T18:48:12.659Z,16.97
2022-09-15T18:50:44.358Z,16.98
2022-09-15T18:53:12.431Z,16.99
2022-09-15T18:55:41.408Z,16.96
2022-09-15T18:58:09.377Z,16.98
2022-09-15T19:00:37.316Z,16.99
2022-09-15T19:03:07.438Z,16.97
2022-09-15T19:05:35.210Z,16.98
2022-09-15T19:08:05.125Z,16.95
2022-09-15T19:10:32.803Z,16.96
2022-09-15T19:13:00.507Z,16.90
2022-09-15T19:15:29.233Z,16.98
2022-09-15T19:17:56.925Z,16.98
2022-09-15T19:20:24.677Z,16.98
2022-09-15T19:22:52.360Z,16.96
2022-09-15T19:25:21.523Z,16.95
2022-09-15T19:27:49.215Z,16.91
2022-09-15T19:30:16.940Z,16.90
2022-09-15T19:32:44.612Z,16.89
2022-09-15T19:35:12.317Z,16.89
2022-09-15T19:37:42.038Z,16.87
2022-09-15T19:40:12.263Z,16.85
2022-09-15T19:42:42.841Z,16.84
2022-09-15T19:45:12.135Z,16.83
2022-09-15T19:47:41.152Z,16.81
2022-09-15T19:50:10.264Z,16.80
2022-09-15T19:52:37.941Z,16.78
2022-09-15T19:55:09.460Z,16.77
2022-09-15T19:57:41.466Z,16.76
2022-09-15T20:00:11.736Z,16.74
2022-09-15T20:02:39.731Z,16.75
2022-09-15T20:05:09.140Z,16.73
2022-09-15T20:07:37.656Z,16.74
2022-09-15T20:10:06.266Z,16.73
2022-09-15T20:12:33.961Z,16.73
2022-09-15T20:15:03.061Z,16.70
2022-09-15T20:17:30.801Z,16.73
2022-09-15T20:19:58.536Z,16.71
2022-09-15T20:22:26.842Z,16.70
2022-09-15T20:24:56.060Z,16.70
2022-09-15T20:27:23.808Z,16.72
2022-09-15T20:29:51.450Z,16.72
2022-09-15T20:32:23.808Z,16.71
2022-09-15T20:34:55.260Z,16.70
2022-09-15T20:37:23.269Z,16.69
2022-09-15T20:39:51.490Z,16.67
2022-09-15T20:42:19.190Z,16.66
2022-09-15T20:44:46.959Z,16.65
2022-09-15T20:47:14.795Z,16.66
2022-09-15T20:49:43.857Z,16.66
2022-09-15T20:52:11.510Z,16.65
2022-09-15T20:54:39.153Z,16.65
2022-09-15T20:57:06.863Z,16.63
2022-09-15T20:59:34.535Z,16.62
2022-09-15T21:02:04.238Z,16.58
2022-09-15T21:04:32.280Z,16.56
2022-09-15T21:07:01.339Z,16.55
2022-09-15T21:09:29.023Z,16.57
2022-09-15T21:11:56.666Z,16.57
2022-09-15T21:14:24.464Z,16.56
2022-09-15T21:16:52.148Z,16.55
2022-09-15T21:19:19.898Z,16.56
2022-09-15T21:21:47.518Z,16.56
2022-09-15T21:24:17.080Z,16.55
2022-09-15T21:26:58.643Z,16.55
2022-09-15T21:29:27.582Z,16.55
2022-09-15T21:31:56.196Z,16.56
2022-09-15T21:34:24.171Z,16.54
2022-09-15T21:36:53.801Z,16.54
2022-09-15T21:39:22.803Z,16.53
2022-09-15T21:41:50.738Z,16.53
2022-09-15T21:44:18.605Z,16.52
2022-09-15T21:46:47.216Z,16.51
2022-09-15T21:49:14.986Z,16.52
2022-09-15T21:51:42.834Z,16.52
2022-09-15T21:54:11.020Z,16.51
2022-09-15T21:56:40.066Z,16.53
2022-09-15T21:59:09.232Z,16.52
2022-09-15T22:01:36.945Z,16.51
2022-09-15T22:04:07.807Z,16.51
2022-09-15T22:06:40.154Z,16.50
2022-09-15T22:09:10.756Z,16.49
2022-09-15T22:11:40.137Z,16.48
2022-09-15T22:14:08.869Z,16.47
2022-09-15T22:16:38.705Z,16.47
2022-09-15T22:19:07.442Z,16.47
2022-09-15T22:21:36.947Z,16.50
2022-09-15T22:24:06.947Z,16.50
2022-09-15T22:26:36.755Z,16.51
2022-09-15T22:29:06.922Z,16.51
2022-09-15T22:31:35.330Z,16.50
2022-09-15T22:34:03.704Z,16.51
2022-09-15T22:36:31.986Z,16.51
2022-09-15T22:39:04.699Z,16.51
2022-09-15T22:41:34.023Z,16.51
2022-09-15T22:44:01.963Z,16.50
2022-09-15T22:46:31.443Z,16.50
2022-09-15T22:48:59.086Z,16.49
2022-09-15T22:51:26.972Z,16.49
2022-09-15T22:53:57.202Z,16.50
2022-09-15T22:56:26.392Z,16.50
2022-09-15T22:58:54.363Z,16.49
2022-09-15T23:01:24.035Z,16.48
2022-09-15T23:03:54.159Z,16.49
2022-09-15T23:06:22.820Z,16.48
2022-09-15T23:08:52.563Z,16.49
2022-09-15T23:11:21.025Z,16.47
2022-09-15T23:13:49.507Z,16.44
2022-09-15T23:16:17.936Z,16.44
2022-09-15T23:18:46.051Z,16.42
2022-09-15T23:21:15.343Z,16.32
2022-09-15T23:23:45.257Z,16.42
2022-09-15T23:26:13.658Z,16.38
2022-09-15T23:28:41.707Z,16.38
2022-09-15T23:31:11.825Z,16.39
2022-09-15T23:33:39.777Z,16.38
2022-09-15T23:36:09.391Z,16.39
2022-09-15T23:38:38.988Z,16.37
2022-09-15T23:41:07.327Z,16.30
2022-09-15T23:43:35.685Z,16.38
2022-09-15T23:46:04.508Z,16.37
2022-09-15T23:48:32.627Z,16.36
2022-09-15T23:51:00.576Z,16.34
2022-09-15T23:53:28.591Z,16.33
2022-09-15T23:55:57.796Z,16.32
2022-09-15T23:58:25.795Z,16.31
